sensor_id;sensor_type;location;lat;lon;timestamp;P1;durP1;ratioP1;P2;durP2;ratioP2
50531;SDS011;36483;37.396;-122.212;2022-11-15T00:01:53;4.10;;;1.10;;
50531;SDS011;36483;37.396;-122.212;2022-11-15T00:04:20;3.97;;;1.15;;
50531;SDS011;36483;37.396;-122.212;2022-11-15T00:06:46;3.50;;;1.25;;
50531;SDS011;36483;37.396;-122.212;2022-11-15T00:09:12;2.08;;;1.23;;
50531;SDS011;36483;37.396;-122.212;2022-11-15T00:11:38;3.40;;;1.17;;
50531;SDS011;36483;37.396;-122.212;2022-11-15T00:14:04;2.85;;;1.20;;
50531;SDS011;36483;37.396;-122.212;2022-11-15T00:16:30;3.42;;;1.10;;
50531;SDS011;36483;37.396;-122.212;2022-11-15T00:18:56;1.83;;;1.05;;
50531;SDS011;36483;37.396;-122.212;2022-11-15T00:21:23;2.15;;;1.10;;
50531;SDS011;36483;37.396;-122.212;2022-11-15T00:23:49;1.70;;;1.00;;
50531;SDS011;36483;37.396;-122.212;2022-11-15T00:26:15;3.40;;;0.80;;
50531;SDS011;36483;37.396;-122.212;2022-11-15T00:28:41;2.00;;;1.10;;
50531;SDS011;36483;37.396;-122.212;2022-11-15T00:31:09;3.70;;;1.05;;
50531;SDS011;36483;37.396;-122.212;2022-11-15T00:33:38;4.65;;;1.17;;
50531;SDS011;36483;37.396;-122.212;2022-11-15T00:36:05;3.30;;;1.30;;
50531;SDS011;36483;37.396;-122.212;2022-11-15T00:38:34;3.72;;;1.45;;
50531;SDS011;36483;37.396;-122.212;2022-11-15T00:41:03;3.42;;;1.35;;
50531;SDS011;36483;37.396;-122.212;2022-11-15T00:43:30;5.43;;;1.30;;
50531;SDS011;36483;37.396;-122.212;2022-11-15T00:45:57;3.97;;;1.40;;
50531;SDS011;36483;37.396;-122.212;2022-11-15T00:48:23;4.45;;;1.50;;
50531;SDS011;36483;37.396;-122.212;2022-11-15T00:50:49;5.78;;;1.35;;
50531;SDS011;36483;37.396;-122.212;2022-11-15T00:53:16;4.85;;;1.45;;
50531;SDS011;36483;37.396;-122.212;2022-11-15T00:55:42;2.95;;;1.42;;
50531;SDS011;36483;37.396;-122.212;2022-11-15T00:58:09;6.80;;;1.50;;
50531;SDS011;36483;37.396;-122.212;2022-11-15T01:00:35;4.10;;;1.50;;
50531;SDS011;36483;37.396;-122.212;2022-11-15T01:03:01;3.47;;;1.55;;
50531;SDS011;36483;37.396;-122.212;2022-11-15T01:05:27;4.05;;;1.50;;
50531;SDS011;36483;37.396;-122.212;2022-11-15T01:07:55;4.85;;;1.55;;
50531;SDS011;36483;37.396;-122.212;2022-11-15T01:10:22;3.35;;;1.20;;
50531;SDS011;36483;37.396;-122.212;2022-11-15T01:12:49;2.50;;;1.25;;
50531;SDS011;36483;37.396;-122.212;2022-11-15T01:15:15;3.55;;;1.20;;
50531;SDS011;36483;37.396;-122.212;2022-11-15T01:17:41;3.58;;;1.40;;
50531;SDS011;36483;37.396;-122.212;2022-11-15T01:20:08;3.45;;;1.33;;
50531;SDS011;36483;37.396;-122.212;2022-11-15T01:22:34;3.15;;;1.60;;
50531;SDS011;36483;37.396;-122.212;2022-11-15T01:25:00;4.18;;;1.70;;
50531;SDS011;36483;37.396;-122.212;2022-11-15T01:27:27;7.68;;;1.67;;
50531;SDS011;36483;37.396;-122.212;2022-11-15T01:29:53;7.43;;;1.70;;
50531;SDS011;36483;37.396;-122.212;2022-11-15T01:32:19;11.07;;;1.60;;
50531;SDS011;36483;37.396;-122.212;2022-11-15T01:34:45;3.25;;;1.70;;
50531;SDS011;36483;37.396;-122.212;2022-11-15T01:37:11;5.20;;;1.92;;
50531;SDS011;36483;37.396;-122.212;2022-11-15T01:39:37;4.20;;;1.98;;
50531;SDS011;36483;37.396;-122.212;2022-11-15T01:42:03;5.50;;;2.80;;
50531;SDS011;36483;37.396;-122.212;2022-11-15T01:47:23;4.65;;;2.75;;
50531;SDS011;36483;37.396;-122.212;2022-11-15T01:52:20;7.07;;;3.00;;
50531;SDS011;36483;37.396;-122.212;2022-11-15T01:54:50;5.88;;;2.53;;
50531;SDS011;36483;37.396;-122.212;2022-11-15T01:57:19;3.47;;;2.10;;
50531;SDS011;36483;37.396;-122.212;2022-11-15T01:59:45;4.20;;;2.17;;
50531;SDS011;36483;37.396;-122.212;2022-11-15T02:02:11;5.28;;;2.17;;
50531;SDS011;36483;37.396;-122.212;2022-11-15T02:04:47;4.47;;;1.73;;
50531;SDS011;36483;37.396;-122.212;2022-11-15T02:07:17;4.70;;;1.70;;
50531;SDS011;36483;37.396;-122.212;2022-11-15T02:09:44;3.70;;;1.40;;
50531;SDS011;36483;37.396;-122.212;2022-11-15T02:12:12;5.18;;;1.55;;
50531;SDS011;36483;37.396;-122.212;2022-11-15T02:14:41;2.35;;;1.17;;
50531;SDS011;36483;37.396;-122.212;2022-11-15T02:33:22;3.05;;;1.15;;
50531;SDS011;36483;37.396;-122.212;2022-11-15T02:39:08;2.75;;;1.25;;
50531;SDS011;36483;37.396;-122.212;2022-11-15T02:42:07;2.65;;;1.35;;
50531;SDS011;36483;37.396;-122.212;2022-11-15T02:44:57;3.33;;;1.58;;
50531;SDS011;36483;37.396;-122.212;2022-11-15T02:47:24;3.88;;;1.38;;
50531;SDS011;36483;37.396;-122.212;2022-11-15T02:49:53;5.15;;;1.50;;
50531;SDS011;36483;37.396;-122.212;2022-11-15T02:52:29;3.50;;;1.08;;
50531;SDS011;36483;37.396;-122.212;2022-11-15T02:54:56;3.20;;;1.50;;
50531;SDS011;36483;37.396;-122.212;2022-11-15T03:05:41;2.97;;;1.17;;
50531;SDS011;36483;37.396;-122.212;2022-11-15T03:08:32;2.90;;;1.50;;
50531;SDS011;36483;37.396;-122.212;2022-11-15T03:11:14;6.43;;;1.60;;
50531;SDS011;36483;37.396;-122.212;2022-11-15T03:13:48;2.40;;;1.40;;
50531;SDS011;36483;37.396;-122.212;2022-11-15T03:18:51;3.58;;;1.52;;
50531;SDS011;36483;37.396;-122.212;2022-11-15T03:21:20;3.90;;;1.70;;
50531;SDS011;36483;37.396;-122.212;2022-11-15T03:23:47;7.20;;;1.38;;
50531;SDS011;36483;37.396;-122.212;2022-11-15T03:26:14;2.72;;;1.27;;
50531;SDS011;36483;37.396;-122.212;2022-11-15T03:28:43;3.72;;;1.40;;
50531;SDS011;36483;37.396;-122.212;2022-11-15T03:31:15;2.83;;;1.52;;
50531;SDS011;36483;37.396;-122.212;2022-11-15T03:34:01;2.22;;;1.50;;
50531;SDS011;36483;37.396;-122.212;2022-11-15T03:36:29;2.47;;;1.40;;
50531;SDS011;36483;37.396;-122.212;2022-11-15T03:38:56;2.58;;;1.42;;
50531;SDS011;36483;37.396;-122.212;2022-11-15T03:41:43;2.00;;;1.30;;
50531;SDS011;36483;37.396;-122.212;2022-11-15T03:44:28;4.90;;;1.38;;
50531;SDS011;36483;37.396;-122.212;2022-11-15T03:49:33;1.90;;;1.15;;
50531;SDS011;36483;37.396;-122.212;2022-11-15T03:52:02;2.95;;;1.60;;
50531;SDS011;36483;37.396;-122.212;2022-11-15T03:54:29;2.13;;;1.30;;
50531;SDS011;36483;37.396;-122.212;2022-11-15T03:56:55;2.92;;;1.67;;
50531;SDS011;36483;37.396;-122.212;2022-11-15T03:59:24;3.58;;;1.52;;
50531;SDS011;36483;37.396;-122.212;2022-11-15T04:01:51;2.80;;;1.42;;
50531;SDS011;36483;37.396;-122.212;2022-11-15T04:04:18;2.58;;;1.50;;
50531;SDS011;36483;37.396;-122.212;2022-11-15T04:06:44;2.22;;;1.40;;
50531;SDS011;36483;37.396;-122.212;2022-11-15T04:09:10;3.25;;;1.50;;
50531;SDS011;36483;37.396;-122.212;2022-11-15T04:11:37;2.28;;;1.50;;
50531;SDS011;36483;37.396;-122.212;2022-11-15T04:14:03;3.60;;;1.40;;
50531;SDS011;36483;37.396;-122.212;2022-11-15T04:16:29;5.57;;;2.00;;
50531;SDS011;36483;37.396;-122.212;2022-11-15T04:18:55;2.78;;;1.80;;
50531;SDS011;36483;37.396;-122.212;2022-11-15T04:21:39;2.45;;;1.58;;
50531;SDS011;36483;37.396;-122.212;2022-11-15T04:24:24;2.92;;;1.45;;
50531;SDS011;36483;37.396;-122.212;2022-11-15T04:26:50;3.13;;;1.80;;
50531;SDS011;36483;37.396;-122.212;2022-11-15T04:29:16;2.60;;;1.63;;
50531;SDS011;36483;37.396;-122.212;2022-11-15T04:32:05;2.75;;;1.73;;
50531;SDS011;36483;37.396;-122.212;2022-11-15T04:34:32;3.22;;;1.88;;
50531;SDS011;36483;37.396;-122.212;2022-11-15T04:36:58;4.20;;;1.90;;
50531;SDS011;36483;37.396;-122.212;2022-11-15T04:39:37;3.00;;;1.95;;
50531;SDS011;36483;37.396;-122.212;2022-11-15T04:42:04;3.38;;;1.75;;
50531;SDS011;36483;37.396;-122.212;2022-11-15T04:44:30;5.13;;;2.00;;
50531;SDS011;36483;37.396;-122.212;2022-11-15T04:46:56;4.07;;;2.50;;
50531;SDS011;36483;37.396;-122.212;2022-11-15T04:49:22;4.72;;;2.38;;
50531;SDS011;36483;37.396;-122.212;2022-11-15T04:51:48;3.72;;;2.25;;
50531;SDS011;36483;37.396;-122.212;2022-11-15T04:54:14;3.97;;;2.35;;
50531;SDS011;36483;37.396;-122.212;2022-11-15T04:56:40;3.97;;;2.33;;
50531;SDS011;36483;37.396;-122.212;2022-11-15T04:59:07;4.85;;;2.25;;
50531;SDS011;36483;37.396;-122.212;2022-11-15T05:01:53;4.78;;;2.35;;
50531;SDS011;36483;37.396;-122.212;2022-11-15T05:04:19;2.85;;;2.03;;
50531;SDS011;36483;37.396;-122.212;2022-11-15T05:06:49;4.85;;;2.40;;
50531;SDS011;36483;37.396;-122.212;2022-11-15T05:09:17;4.03;;;2.42;;
50531;SDS011;36483;37.396;-122.212;2022-11-15T05:11:43;3.40;;;2.30;;
50531;SDS011;36483;37.396;-122.212;2022-11-15T05:14:11;4.65;;;2.00;;
50531;SDS011;36483;37.396;-122.212;2022-11-15T05:16:39;3.25;;;2.28;;
50531;SDS011;36483;37.396;-122.212;2022-11-15T05:19:05;3.22;;;2.30;;
50531;SDS011;36483;37.396;-122.212;2022-11-15T05:21:32;5.40;;;2.50;;
50531;SDS011;36483;37.396;-122.212;2022-11-15T05:23:58;3.88;;;2.08;;
50531;SDS011;36483;37.396;-122.212;2022-11-15T05:26:24;3.38;;;2.00;;
50531;SDS011;36483;37.396;-122.212;2022-11-15T05:28:55;4.57;;;2.40;;
50531;SDS011;36483;37.396;-122.212;2022-11-15T05:31:22;4.22;;;2.50;;
50531;SDS011;36483;37.396;-122.212;2022-11-15T05:33:49;3.95;;;2.08;;
50531;SDS011;36483;37.396;-122.212;2022-11-15T05:39:04;4.05;;;2.40;;
50531;SDS011;36483;37.396;-122.212;2022-11-15T05:41:32;4.13;;;2.42;;
50531;SDS011;36483;37.396;-122.212;2022-11-15T05:43:59;7.82;;;2.75;;
50531;SDS011;36483;37.396;-122.212;2022-11-15T05:46:26;4.45;;;2.47;;
50531;SDS011;36483;37.396;-122.212;2022-11-15T05:48:53;3.88;;;2.33;;
50531;SDS011;36483;37.396;-122.212;2022-11-15T05:51:19;4.88;;;2.13;;
50531;SDS011;36483;37.396;-122.212;2022-11-15T05:53:46;2.97;;;2.30;;
50531;SDS011;36483;37.396;-122.212;2022-11-15T05:56:21;4.15;;;2.55;;
50531;SDS011;36483;37.396;-122.212;2022-11-15T05:58:47;3.78;;;2.15;;
50531;SDS011;36483;37.396;-122.212;2022-11-15T06:01:31;5.68;;;2.40;;
50531;SDS011;36483;37.396;-122.212;2022-11-15T06:04:00;5.13;;;2.40;;
50531;SDS011;36483;37.396;-122.212;2022-11-15T06:06:27;3.35;;;2.17;;
50531;SDS011;36483;37.396;-122.212;2022-11-15T06:08:54;4.57;;;2.40;;
50531;SDS011;36483;37.396;-122.212;2022-11-15T06:11:20;3.70;;;2.30;;
50531;SDS011;36483;37.396;-122.212;2022-11-15T06:13:46;4.53;;;2.50;;
50531;SDS011;36483;37.396;-122.212;2022-11-15T06:16:12;3.28;;;2.40;;
50531;SDS011;36483;37.396;-122.212;2022-11-15T06:18:38;5.15;;;2.70;;
50531;SDS011;36483;37.396;-122.212;2022-11-15T06:21:05;4.25;;;2.40;;
50531;SDS011;36483;37.396;-122.212;2022-11-15T06:23:31;3.17;;;2.42;;
50531;SDS011;36483;37.396;-122.212;2022-11-15T06:25:59;4.68;;;2.40;;
50531;SDS011;36483;37.396;-122.212;2022-11-15T06:28:29;4.65;;;2.55;;
50531;SDS011;36483;37.396;-122.212;2022-11-15T06:30:56;4.95;;;2.72;;
50531;SDS011;36483;37.396;-122.212;2022-11-15T06:33:27;3.50;;;2.63;;
50531;SDS011;36483;37.396;-122.212;2022-11-15T06:35:53;5.50;;;2.67;;
50531;SDS011;36483;37.396;-122.212;2022-11-15T06:38:19;5.85;;;2.75;;
50531;SDS011;36483;37.396;-122.212;2022-11-15T06:40:45;4.55;;;2.90;;
50531;SDS011;36483;37.396;-122.212;2022-11-15T06:43:11;3.85;;;2.60;;
50531;SDS011;36483;37.396;-122.212;2022-11-15T06:45:38;4.60;;;2.88;;
50531;SDS011;36483;37.396;-122.212;2022-11-15T06:48:04;4.10;;;2.55;;
50531;SDS011;36483;37.396;-122.212;2022-11-15T06:50:30;5.63;;;2.90;;
50531;SDS011;36483;37.396;-122.212;2022-11-15T06:53:00;5.82;;;2.83;;
50531;SDS011;36483;37.396;-122.212;2022-11-15T06:55:27;5.80;;;2.90;;
50531;SDS011;36483;37.396;-122.212;2022-11-15T06:57:53;4.22;;;2.72;;
50531;SDS011;36483;37.396;-122.212;2022-11-15T07:00:20;6.78;;;2.92;;
50531;SDS011;36483;37.396;-122.212;2022-11-15T07:02:50;5.60;;;3.13;;
50531;SDS011;36483;37.396;-122.212;2022-11-15T07:05:16;4.72;;;2.67;;
50531;SDS011;36483;37.396;-122.212;2022-11-15T07:07:42;3.55;;;2.45;;
50531;SDS011;36483;37.396;-122.212;2022-11-15T07:10:08;6.68;;;3.10;;
50531;SDS011;36483;37.396;-122.212;2022-11-15T07:12:35;5.75;;;2.88;;
50531;SDS011;36483;37.396;-122.212;2022-11-15T07:15:01;5.72;;;2.97;;
50531;SDS011;36483;37.396;-122.212;2022-11-15T07:17:27;5.03;;;3.10;;
50531;SDS011;36483;37.396;-122.212;2022-11-15T07:19:53;4.90;;;2.63;;
50531;SDS011;36483;37.396;-122.212;2022-11-15T07:22:19;4.32;;;2.90;;
50531;SDS011;36483;37.396;-122.212;2022-11-15T07:24:45;6.63;;;3.08;;
50531;SDS011;36483;37.396;-122.212;2022-11-15T07:27:11;4.97;;;3.05;;
50531;SDS011;36483;37.396;-122.212;2022-11-15T07:29:37;5.97;;;2.75;;
50531;SDS011;36483;37.396;-122.212;2022-11-15T07:32:03;5.57;;;3.13;;
50531;SDS011;36483;37.396;-122.212;2022-11-15T07:34:29;4.18;;;2.97;;
50531;SDS011;36483;37.396;-122.212;2022-11-15T07:36:56;4.20;;;3.10;;
50531;SDS011;36483;37.396;-122.212;2022-11-15T07:39:22;4.32;;;2.53;;
50531;SDS011;36483;37.396;-122.212;2022-11-15T07:41:48;5.18;;;2.88;;
50531;SDS011;36483;37.396;-122.212;2022-11-15T07:44:14;6.32;;;2.83;;
50531;SDS011;36483;37.396;-122.212;2022-11-15T07:46:40;4.85;;;2.58;;
50531;SDS011;36483;37.396;-122.212;2022-11-15T07:49:06;4.65;;;3.10;;
50531;SDS011;36483;37.396;-122.212;2022-11-15T07:51:32;5.93;;;3.28;;
50531;SDS011;36483;37.396;-122.212;2022-11-15T07:53:58;3.65;;;2.63;;
50531;SDS011;36483;37.396;-122.212;2022-11-15T07:56:25;3.70;;;2.70;;
50531;SDS011;36483;37.396;-122.212;2022-11-15T07:58:51;4.47;;;2.75;;
50531;SDS011;36483;37.396;-122.212;2022-11-15T08:01:17;5.32;;;2.90;;
50531;SDS011;36483;37.396;-122.212;2022-11-15T08:03:43;4.70;;;3.10;;
50531;SDS011;36483;37.396;-122.212;2022-11-15T08:06:09;4.68;;;2.85;;
50531;SDS011;36483;37.396;-122.212;2022-11-15T08:08:35;5.57;;;3.05;;
50531;SDS011;36483;37.396;-122.212;2022-11-15T08:11:01;4.55;;;2.70;;
50531;SDS011;36483;37.396;-122.212;2022-11-15T08:13:28;6.10;;;3.22;;
50531;SDS011;36483;37.396;-122.212;2022-11-15T08:15:58;3.50;;;2.65;;
50531;SDS011;36483;37.396;-122.212;2022-11-15T08:18:25;4.40;;;2.78;;
50531;SDS011;36483;37.396;-122.212;2022-11-15T08:20:51;4.75;;;2.90;;
50531;SDS011;36483;37.396;-122.212;2022-11-15T08:23:17;4.65;;;2.90;;
50531;SDS011;36483;37.396;-122.212;2022-11-15T08:25:43;4.82;;;2.90;;
50531;SDS011;36483;37.396;-122.212;2022-11-15T08:28:09;4.65;;;2.80;;
50531;SDS011;36483;37.396;-122.212;2022-11-15T08:30:40;3.35;;;2.63;;
50531;SDS011;36483;37.396;-122.212;2022-11-15T08:33:10;4.25;;;2.70;;
50531;SDS011;36483;37.396;-122.212;2022-11-15T08:35:38;3.88;;;2.90;;
50531;SDS011;36483;37.396;-122.212;2022-11-15T08:38:04;4.60;;;2.85;;
50531;SDS011;36483;37.396;-122.212;2022-11-15T08:40:30;5.20;;;2.85;;
50531;SDS011;36483;37.396;-122.212;2022-11-15T08:42:57;3.65;;;2.92;;
50531;SDS011;36483;37.396;-122.212;2022-11-15T08:45:24;7.05;;;3.30;;
50531;SDS011;36483;37.396;-122.212;2022-11-15T08:47:50;4.88;;;2.83;;
50531;SDS011;36483;37.396;-122.212;2022-11-15T08:50:16;3.35;;;2.85;;
50531;SDS011;36483;37.396;-122.212;2022-11-15T08:52:42;3.90;;;2.80;;
50531;SDS011;36483;37.396;-122.212;2022-11-15T08:55:08;4.20;;;2.90;;
50531;SDS011;36483;37.396;-122.212;2022-11-15T08:57:34;3.75;;;2.88;;
50531;SDS011;36483;37.396;-122.212;2022-11-15T09:00:00;3.13;;;2.60;;
50531;SDS011;36483;37.396;-122.212;2022-11-15T09:02:26;6.35;;;3.20;;
50531;SDS011;36483;37.396;-122.212;2022-11-15T09:04:52;4.70;;;3.15;;
50531;SDS011;36483;37.396;-122.212;2022-11-15T09:07:19;5.70;;;3.10;;
50531;SDS011;36483;37.396;-122.212;2022-11-15T09:09:45;4.25;;;2.65;;
50531;SDS011;36483;37.396;-122.212;2022-11-15T09:12:11;4.78;;;3.00;;
50531;SDS011;36483;37.396;-122.212;2022-11-15T09:14:37;3.53;;;2.80;;
50531;SDS011;36483;37.396;-122.212;2022-11-15T09:17:03;3.90;;;2.85;;
50531;SDS011;36483;37.396;-122.212;2022-11-15T09:19:33;4.03;;;2.90;;
50531;SDS011;36483;37.396;-122.212;2022-11-15T09:22:00;4.82;;;3.10;;
50531;SDS011;36483;37.396;-122.212;2022-11-15T09:24:26;5.53;;;2.90;;
50531;SDS011;36483;37.396;-122.212;2022-11-15T09:26:52;4.00;;;3.03;;
50531;SDS011;36483;37.396;-122.212;2022-11-15T09:29:18;5.70;;;3.35;;
50531;SDS011;36483;37.396;-122.212;2022-11-15T09:31:44;5.20;;;3.08;;
50531;SDS011;36483;37.396;-122.212;2022-11-15T09:34:11;5.38;;;3.20;;
50531;SDS011;36483;37.396;-122.212;2022-11-15T09:36:37;5.22;;;3.30;;
50531;SDS011;36483;37.396;-122.212;2022-11-15T09:39:03;5.50;;;3.10;;
50531;SDS011;36483;37.396;-122.212;2022-11-15T09:44:12;4.55;;;3.10;;
50531;SDS011;36483;37.396;-122.212;2022-11-15T09:49:18;4.35;;;2.90;;
50531;SDS011;36483;37.396;-122.212;2022-11-15T09:51:45;5.18;;;3.17;;
50531;SDS011;36483;37.396;-122.212;2022-11-15T09:54:20;5.50;;;3.33;;
50531;SDS011;36483;37.396;-122.212;2022-11-15T09:56:47;4.72;;;3.20;;
50531;SDS011;36483;37.396;-122.212;2022-11-15T10:04:27;5.28;;;3.28;;
50531;SDS011;36483;37.396;-122.212;2022-11-15T10:07:02;5.38;;;3.42;;
50531;SDS011;36483;37.396;-122.212;2022-11-15T10:10:01;5.25;;;3.40;;
50531;SDS011;36483;37.396;-122.212;2022-11-15T10:12:28;4.53;;;3.47;;
50531;SDS011;36483;37.396;-122.212;2022-11-15T10:15:05;5.60;;;3.63;;
50531;SDS011;36483;37.396;-122.212;2022-11-15T10:17:45;5.28;;;3.67;;
50531;SDS011;36483;37.396;-122.212;2022-11-15T10:20:41;5.13;;;3.50;;
50531;SDS011;36483;37.396;-122.212;2022-11-15T10:23:17;4.88;;;3.28;;
50531;SDS011;36483;37.396;-122.212;2022-11-15T10:25:45;4.10;;;3.28;;
50531;SDS011;36483;37.396;-122.212;2022-11-15T10:28:25;6.43;;;3.90;;
50531;SDS011;36483;37.396;-122.212;2022-11-15T10:30:56;6.67;;;4.20;;
50531;SDS011;36483;37.396;-122.212;2022-11-15T10:36:13;6.63;;;4.32;;
50531;SDS011;36483;37.396;-122.212;2022-11-15T10:38:52;4.97;;;3.85;;
50531;SDS011;36483;37.396;-122.212;2022-11-15T10:41:21;6.10;;;3.78;;
50531;SDS011;36483;37.396;-122.212;2022-11-15T10:49:17;7.88;;;4.00;;
50531;SDS011;36483;37.396;-122.212;2022-11-15T10:54:36;6.45;;;3.72;;
50531;SDS011;36483;37.396;-122.212;2022-11-15T10:57:10;6.07;;;4.07;;
50531;SDS011;36483;37.396;-122.212;2022-11-15T10:59:42;5.20;;;3.92;;
50531;SDS011;36483;37.396;-122.212;2022-11-15T11:05:02;5.53;;;3.80;;
50531;SDS011;36483;37.396;-122.212;2022-11-15T11:07:31;4.97;;;3.60;;
50531;SDS011;36483;37.396;-122.212;2022-11-15T11:12:42;5.75;;;4.15;;
50531;SDS011;36483;37.396;-122.212;2022-11-15T11:15:12;5.82;;;4.28;;
50531;SDS011;36483;37.396;-122.212;2022-11-15T11:25:50;6.95;;;4.20;;
50531;SDS011;36483;37.396;-122.212;2022-11-15T11:28:39;6.40;;;4.25;;
50531;SDS011;36483;37.396;-122.212;2022-11-15T11:49:20;6.43;;;3.95;;
50531;SDS011;36483;37.396;-122.212;2022-11-15T11:54:31;6.55;;;4.28;;
50531;SDS011;36483;37.396;-122.212;2022-11-15T11:57:02;6.47;;;4.50;;
50531;SDS011;36483;37.396;-122.212;2022-11-15T12:02:21;4.90;;;3.83;;
50531;SDS011;36483;37.396;-122.212;2022-11-15T12:04:56;6.20;;;4.40;;
50531;SDS011;36483;37.396;-122.212;2022-11-15T12:07:31;6.38;;;4.05;;
50531;SDS011;36483;37.396;-122.212;2022-11-15T12:09:59;7.28;;;4.25;;
50531;SDS011;36483;37.396;-122.212;2022-11-15T12:12:31;5.18;;;4.10;;
50531;SDS011;36483;37.396;-122.212;2022-11-15T12:15:27;6.50;;;4.05;;
50531;SDS011;36483;37.396;-122.212;2022-11-15T12:17:57;5.50;;;4.30;;
50531;SDS011;36483;37.396;-122.212;2022-11-15T12:20:32;6.93;;;3.95;;
50531;SDS011;36483;37.396;-122.212;2022-11-15T12:25:45;6.50;;;4.20;;
50531;SDS011;36483;37.396;-122.212;2022-11-15T12:34:01;6.40;;;4.18;;
50531;SDS011;36483;37.396;-122.212;2022-11-15T12:36:42;7.20;;;4.40;;
50531;SDS011;36483;37.396;-122.212;2022-11-15T12:39:10;5.55;;;4.55;;
50531;SDS011;36483;37.396;-122.212;2022-11-15T12:41:38;6.15;;;4.47;;
50531;SDS011;36483;37.396;-122.212;2022-11-15T12:59:52;4.82;;;3.78;;
50531;SDS011;36483;37.396;-122.212;2022-11-15T13:08:01;6.53;;;4.13;;
50531;SDS011;36483;37.396;-122.212;2022-11-15T13:13:04;6.53;;;4.43;;
50531;SDS011;36483;37.396;-122.212;2022-11-15T13:18:35;5.57;;;4.15;;
50531;SDS011;36483;37.396;-122.212;2022-11-15T13:21:18;6.13;;;4.00;;
50531;SDS011;36483;37.396;-122.212;2022-11-15T13:24:04;4.82;;;3.80;;
50531;SDS011;36483;37.396;-122.212;2022-11-15T13:26:30;5.72;;;4.40;;
50531;SDS011;36483;37.396;-122.212;2022-11-15T13:28:56;5.82;;;4.18;;
50531;SDS011;36483;37.396;-122.212;2022-11-15T13:31:25;5.32;;;4.63;;
50531;SDS011;36483;37.396;-122.212;2022-11-15T13:33:56;6.00;;;4.30;;
50531;SDS011;36483;37.396;-122.212;2022-11-15T13:36:31;8.32;;;4.28;;
50531;SDS011;36483;37.396;-122.212;2022-11-15T13:39:11;6.03;;;4.57;;
50531;SDS011;36483;37.396;-122.212;2022-11-15T13:41:49;5.63;;;4.53;;
50531;SDS011;36483;37.396;-122.212;2022-11-15T13:44:34;5.82;;;4.72;;
50531;SDS011;36483;37.396;-122.212;2022-11-15T13:47:04;8.45;;;4.57;;
50531;SDS011;36483;37.396;-122.212;2022-11-15T13:49:41;6.18;;;4.43;;
50531;SDS011;36483;37.396;-122.212;2022-11-15T13:52:08;5.30;;;4.20;;
50531;SDS011;36483;37.396;-122.212;2022-11-15T14:02:30;6.43;;;4.60;;
50531;SDS011;36483;37.396;-122.212;2022-11-15T14:04:59;6.28;;;4.47;;
50531;SDS011;36483;37.396;-122.212;2022-11-15T14:07:38;5.28;;;4.35;;
50531;SDS011;36483;37.396;-122.212;2022-11-15T14:10:24;5.90;;;4.32;;
50531;SDS011;36483;37.396;-122.212;2022-11-15T14:12:54;4.78;;;3.90;;
50531;SDS011;36483;37.396;-122.212;2022-11-15T14:15:31;6.20;;;4.35;;
50531;SDS011;36483;37.396;-122.212;2022-11-15T14:18:02;7.20;;;4.68;;
50531;SDS011;36483;37.396;-122.212;2022-11-15T14:20:33;6.47;;;3.97;;
50531;SDS011;36483;37.396;-122.212;2022-11-15T14:23:46;6.40;;;4.00;;
50531;SDS011;36483;37.396;-122.212;2022-11-15T14:25:57;6.68;;;4.53;;
50531;SDS011;36483;37.396;-122.212;2022-11-15T14:30:54;6.15;;;4.28;;
50531;SDS011;36483;37.396;-122.212;2022-11-15T14:33:27;6.72;;;4.38;;
50531;SDS011;36483;37.396;-122.212;2022-11-15T14:36:01;6.70;;;4.30;;
50531;SDS011;36483;37.396;-122.212;2022-11-15T14:38:29;5.43;;;4.20;;
50531;SDS011;36483;37.396;-122.212;2022-11-15T14:40:55;7.05;;;4.22;;
50531;SDS011;36483;37.396;-122.212;2022-11-15T14:43:22;7.20;;;4.50;;
50531;SDS011;36483;37.396;-122.212;2022-11-15T14:45:48;8.43;;;4.53;;
50531;SDS011;36483;37.396;-122.212;2022-11-15T14:48:14;6.78;;;4.30;;
50531;SDS011;36483;37.396;-122.212;2022-11-15T14:50:40;5.68;;;3.97;;
50531;SDS011;36483;37.396;-122.212;2022-11-15T14:53:06;5.97;;;4.20;;
50531;SDS011;36483;37.396;-122.212;2022-11-15T14:55:37;6.00;;;4.10;;
50531;SDS011;36483;37.396;-122.212;2022-11-15T14:58:04;6.07;;;4.50;;
50531;SDS011;36483;37.396;-122.212;2022-11-15T15:00:33;6.40;;;4.40;;
50531;SDS011;36483;37.396;-122.212;2022-11-15T15:03:04;6.28;;;3.95;;
50531;SDS011;36483;37.396;-122.212;2022-11-15T15:05:40;6.90;;;4.35;;
50531;SDS011;36483;37.396;-122.212;2022-11-15T15:08:08;5.60;;;4.53;;
50531;SDS011;36483;37.396;-122.212;2022-11-15T15:10:36;6.57;;;4.07;;
50531;SDS011;36483;37.396;-122.212;2022-11-15T15:13:04;6.78;;;4.43;;
50531;SDS011;36483;37.396;-122.212;2022-11-15T15:15:34;5.68;;;4.10;;
50531;SDS011;36483;37.396;-122.212;2022-11-15T15:18:02;5.32;;;4.15;;
50531;SDS011;36483;37.396;-122.212;2022-11-15T15:20:30;4.97;;;4.20;;
50531;SDS011;36483;37.396;-122.212;2022-11-15T15:22:57;6.30;;;4.25;;
50531;SDS011;36483;37.396;-122.212;2022-11-15T15:25:26;5.80;;;4.30;;
50531;SDS011;36483;37.396;-122.212;2022-11-15T15:27:53;5.43;;;4.20;;
50531;SDS011;36483;37.396;-122.212;2022-11-15T15:30:20;6.90;;;4.50;;
50531;SDS011;36483;37.396;-122.212;2022-11-15T15:32:47;5.50;;;4.80;;
50531;SDS011;36483;37.396;-122.212;2022-11-15T15:35:14;6.65;;;4.35;;
50531;SDS011;36483;37.396;-122.212;2022-11-15T15:37:41;6.88;;;4.32;;
50531;SDS011;36483;37.396;-122.212;2022-11-15T15:40:10;5.65;;;4.20;;
50531;SDS011;36483;37.396;-122.212;2022-11-15T15:42:47;7.65;;;4.43;;
50531;SDS011;36483;37.396;-122.212;2022-11-15T15:45:14;5.97;;;4.22;;
50531;SDS011;36483;37.396;-122.212;2022-11-15T15:47:40;5.50;;;4.05;;
50531;SDS011;36483;37.396;-122.212;2022-11-15T15:50:49;5.45;;;4.40;;
50531;SDS011;36483;37.396;-122.212;2022-11-15T15:53:00;5.72;;;3.83;;
50531;SDS011;36483;37.396;-122.212;2022-11-15T15:55:27;6.10;;;3.90;;
50531;SDS011;36483;37.396;-122.212;2022-11-15T15:57:54;5.93;;;4.15;;
50531;SDS011;36483;37.396;-122.212;2022-11-15T16:00:20;5.95;;;4.03;;
50531;SDS011;36483;37.396;-122.212;2022-11-15T16:02:49;6.43;;;4.30;;
50531;SDS011;36483;37.396;-122.212;2022-11-15T16:05:15;5.47;;;4.15;;
50531;SDS011;36483;37.396;-122.212;2022-11-15T16:07:42;6.00;;;4.30;;
50531;SDS011;36483;37.396;-122.212;2022-11-15T16:13:07;4.15;;;3.72;;
50531;SDS011;36483;37.396;-122.212;2022-11-15T16:15:33;5.88;;;4.03;;
50531;SDS011;36483;37.396;-122.212;2022-11-15T16:18:04;5.30;;;4.07;;
50531;SDS011;36483;37.396;-122.212;2022-11-15T16:20:43;5.72;;;3.65;;
50531;SDS011;36483;37.396;-122.212;2022-11-15T16:23:11;4.38;;;3.40;;
50531;SDS011;36483;37.396;-122.212;2022-11-15T16:25:44;5.82;;;3.42;;
50531;SDS011;36483;37.396;-122.212;2022-11-15T16:28:17;5.20;;;3.42;;
50531;SDS011;36483;37.396;-122.212;2022-11-15T16:33:31;4.75;;;3.30;;
50531;SDS011;36483;37.396;-122.212;2022-11-15T16:35:57;7.50;;;3.67;;
50531;SDS011;36483;37.396;-122.212;2022-11-15T16:38:24;4.63;;;3.42;;
50531;SDS011;36483;37.396;-122.212;2022-11-15T16:40:50;5.10;;;3.30;;
50531;SDS011;36483;37.396;-122.212;2022-11-15T16:43:17;5.47;;;3.13;;
50531;SDS011;36483;37.396;-122.212;2022-11-15T16:45:43;4.20;;;3.22;;
50531;SDS011;36483;37.396;-122.212;2022-11-15T16:50:44;5.18;;;3.08;;
50531;SDS011;36483;37.396;-122.212;2022-11-15T16:53:10;6.95;;;3.30;;
50531;SDS011;36483;37.396;-122.212;2022-11-15T16:55:37;4.57;;;3.13;;